sensor_id;sensor_type;location;lat;lon;timestamp;temperature;humidity
15815;DHT22;8008;50.024;8.172;2023-05-15T03:02:36;12.60;99.90
15815;DHT22;8008;50.024;8.172;2023-05-15T03:05:05;12.70;99.90
15815;DHT22;8008;50.024;8.172;2023-05-15T03:07:33;12.90;99.90
15815;DHT22;8008;50.024;8.172;2023-05-15T03:10:01;12.90;99.90
15815;DHT22;8008;50.024;8.172;2023-05-15T03:12:30;12.90;99.90
15815;DHT22;8008;50.024;8.172;2023-05-15T03:14:58;12.90;99.90
15815;DHT22;8008;50.024;8.172;2023-05-15T03:17:25;12.80;99.90
15815;DHT22;8008;50.024;8.172;2023-05-15T03:19:55;12.80;99.90
15815;DHT22;8008;50.024;8.172;2023-05-15T03:22:23;12.80;99.90
15815;DHT22;8008;50.024;8.172;2023-05-15T03:24:51;12.90;99.90
15815;DHT22;8008;50.024;8.172;2023-05-15T03:27:19;13.00;99.90
15815;DHT22;8008;50.024;8.172;2023-05-15T03:29:47;13.00;99.90
15815;DHT22;8008;50.024;8.172;2023-05-15T03:32:16;13.00;99.90
15815;DHT22;8008;50.024;8.172;2023-05-15T03:34:44;13.10;99.90
15815;DHT22;8008;50.024;8.172;2023-05-15T03:37:13;13.10;99.90
15815;DHT22;8008;50.024;8.172;2023-05-15T03:39:41;13.10;99.90
15815;DHT22;8008;50.024;8.172;2023-05-15T03:42:10;13.10;99.90
15815;DHT22;8008;50.024;8.172;2023-05-15T03:44:39;13.20;99.90
15815;DHT22;8008;50.024;8.172;2023-05-15T03:47:07;13.10;99.90
15815;DHT22;8008;50.024;8.172;2023-05-15T03:49:35;13.10;99.90
15815;DHT22;8008;50.024;8.172;2023-05-15T03:52:04;13.00;99.90
15815;DHT22;8008;50.024;8.172;2023-05-15T03:54:34;12.90;99.90
15815;DHT22;8008;50.024;8.172;2023-05-15T03:57:02;12.90;99.90
15815;DHT22;8008;50.024;8.172;2023-05-15T03:59:30;12.90;99.90
15815;DHT22;8008;50.024;8.172;2023-05-15T04:01:58;12.90;99.90
15815;DHT22;8008;50.024;8.172;2023-05-15T04:04:31;12.90;99.90
15815;DHT22;8008;50.024;8.172;2023-05-15T04:06:59;12.90;99.90
15815;DHT22;8008;50.024;8.172;2023-05-15T04:09:27;12.90;99.90
15815;DHT22;8008;50.024;8.172;2023-05-15T04:11:56;12.90;99.90
15815;DHT22;8008;50.024;8.172;2023-05-15T04:14:24;12.90;99.90
15815;DHT22;8008;50.024;8.172;2023-05-15T04:16:52;13.00;99.90
15815;DHT22;8008;50.024;8.172;2023-05-15T04:19:20;13.10;99.90
15815;DHT22;8008;50.024;8.172;2023-05-15T04:21:48;13.10;99.90
15815;DHT22;8008;50.024;8.172;2023-05-15T04:24:16;13.10;99.90
15815;DHT22;8008;50.024;8.172;2023-05-15T04:26:44;13.10;99.90
15815;DHT22;8008;50.024;8.172;2023-05-15T04:29:13;13.10;99.90
15815;DHT22;8008;50.024;8.172;2023-05-15T04:31:41;13.20;99.90
15815;DHT22;8008;50.024;8.172;2023-05-15T04:34:09;13.20;99.90
15815;DHT22;8008;50.024;8.172;2023-05-15T04:36:37;13.20;99.90
15815;DHT22;8008;50.024;8.172;2023-05-15T04:39:08;13.30;99.90
15815;DHT22;8008;50.024;8.172;2023-05-15T04:41:36;13.30;99.90
15815;DHT22;8008;50.024;8.172;2023-05-15T04:44:04;13.40;99.90
15815;DHT22;8008;50.024;8.172;2023-05-15T04:46:34;13.40;99.90
15815;DHT22;8008;50.024;8.172;2023-05-15T04:49:03;13.50;99.90
15815;DHT22;8008;50.024;8.172;2023-05-15T04:51:32;13.50;99.90
15815;DHT22;8008;50.024;8.172;2023-05-15T04:54:00;13.50;99.90
15815;DHT22;8008;50.024;8.172;2023-05-15T04:56:28;13.40;99.90
15815;DHT22;8008;50.024;8.172;2023-05-15T04:58:56;13.40;99.90
15815;DHT22;8008;50.024;8.172;2023-05-15T05:01:24;13.40;99.90
15815;DHT22;8008;50.024;8.172;2023-05-15T05:03:53;13.30;99.90
15815;DHT22;8008;50.024;8.172;2023-05-15T05:06:22;13.30;99.90
15815;DHT22;8008;50.024;8.172;2023-05-15T05:08:50;13.20;99.90
15815;DHT22;8008;50.024;8.172;2023-05-15T05:11:18;13.30;99.90
15815;DHT22;8008;50.024;8.172;2023-05-15T05:13:47;13.30;99.90
15815;DHT22;8008;50.024;8.172;2023-05-15T05:16:16;13.20;99.90
15815;DHT22;8008;50.024;8.172;2023-05-15T05:18:44;13.20;99.90
15815;DHT22;8008;50.024;8.172;2023-05-15T05:21:13;13.20;99.90
15815;DHT22;8008;50.024;8.172;2023-05-15T05:23:41;13.20;99.90
15815;DHT22;8008;50.024;8.172;2023-05-15T05:26:09;13.10;99.90
15815;DHT22;8008;50.024;8.172;2023-05-15T05:28:37;13.10;99.90
15815;DHT22;8008;50.024;8.172;2023-05-15T05:31:06;13.20;99.90
15815;DHT22;8008;50.024;8.172;2023-05-15T05:33:34;13.20;99.90
15815;DHT22;8008;50.024;8.172;2023-05-15T05:36:02;13.10;99.90
15815;DHT22;8008;50.024;8.172;2023-05-15T05:38:32;13.20;99.90
15815;DHT22;8008;50.024;8.172;2023-05-15T05:41:00;13.30;99.90
15815;DHT22;8008;50.024;8.172;2023-05-15T05:43:29;13.40;99.90
15815;DHT22;8008;50.024;8.172;2023-05-15T05:45:57;13.50;99.90
15815;DHT22;8008;50.024;8.172;2023-05-15T05:48:25;13.40;99.90
15815;DHT22;8008;50.024;8.172;2023-05-15T05:50:53;13.40;99.90
15815;DHT22;8008;50.024;8.172;2023-05-15T05:53:21;13.60;99.90
15815;DHT22;8008;50.024;8.172;2023-05-15T05:55:50;13.60;99.90
15815;DHT22;8008;50.024;8.172;2023-05-15T05:58:18;13.70;99.90
15815;DHT22;8008;50.024;8.172;2023-05-15T06:00:52;13.70;99.90
15815;DHT22;8008;50.024;8.172;2023-05-15T06:03:20;13.80;99.90
15815;DHT22;8008;50.024;8.172;2023-05-15T06:05:48;13.90;99.90
15815;DHT22;8008;50.024;8.172;2023-05-15T06:08:16;14.00;99.90
15815;DHT22;8008;50.024;8.172;2023-05-15T06:10:45;14.20;99.90
15815;DHT22;8008;50.024;8.172;2023-05-15T06:13:15;14.30;99.90
15815;DHT22;8008;50.024;8.172;2023-05-15T06:15:43;14.40;99.90
15815;DHT22;8008;50.024;8.172;2023-05-15T06:18:11;14.50;99.90
15815;DHT22;8008;50.024;8.172;2023-05-15T06:20:39;14.60;99.90
15815;DHT22;8008;50.024;8.172;2023-05-15T06:23:08;14.70;99.90
15815;DHT22;8008;50.024;8.172;2023-05-15T06:25:36;14.70;99.90
15815;DHT22;8008;50.024;8.172;2023-05-15T06:28:04;14.90;99.90
15815;DHT22;8008;50.024;8.172;2023-05-15T06:30:33;15.00;99.90
15815;DHT22;8008;50.024;8.172;2023-05-15T06:33:01;15.20;99.90
15815;DHT22;8008;50.024;8.172;2023-05-15T06:35:29;15.30;99.90
15815;DHT22;8008;50.024;8.172;2023-05-15T06:37:57;15.40;99.90
15815;DHT22;8008;50.024;8.172;2023-05-15T06:40:25;15.40;99.90
15815;DHT22;8008;50.024;8.172;2023-05-15T06:42:53;15.40;99.90
15815;DHT22;8008;50.024;8.172;2023-05-15T06:45:21;15.50;99.90
15815;DHT22;8008;50.024;8.172;2023-05-15T06:47:51;15.50;99.90
15815;DHT22;8008;50.024;8.172;2023-05-15T06:50:19;15.60;99.90
15815;DHT22;8008;50.024;8.172;2023-05-15T06:52:47;15.50;99.90
15815;DHT22;8008;50.024;8.172;2023-05-15T06:55:15;15.50;99.90
15815;DHT22;8008;50.024;8.172;2023-05-15T06:57:43;15.40;99.90
15815;DHT22;8008;50.024;8.172;2023-05-15T07:00:12;15.20;99.90
15815;DHT22;8008;50.024;8.172;2023-05-15T07:02:40;15.00;99.90
15815;DHT22;8008;50.024;8.172;2023-05-15T07:05:12;15.10;99.90
15815;DHT22;8008;50.024;8.172;2023-05-15T07:07:41;15.30;99.90
15815;DHT22;8008;50.024;8.172;2023-05-15T07:10:09;15.30;99.90
15815;DHT22;8008;50.024;8.172;2023-05-15T07:12:38;15.40;99.90
15815;DHT22;8008;50.024;8.172;2023-05-15T07:15:06;15.50;99.90
15815;DHT22;8008;50.024;8.172;2023-05-15T07:17:34;15.60;99.90
15815;DHT22;8008;50.024;8.172;2023-05-15T07:20:03;15.60;99.90
15815;DHT22;8008;50.024;8.172;2023-05-15T07:22:33;15.70;99.90
15815;DHT22;8008;50.024;8.172;2023-05-15T07:25:14;15.90;99.90
15815;DHT22;8008;50.024;8.172;2023-05-15T07:27:42;15.90;99.90
15815;DHT22;8008;50.024;8.172;2023-05-15T07:30:11;16.00;99.90
15815;DHT22;8008;50.024;8.172;2023-05-15T07:32:39;16.00;99.90
15815;DHT22;8008;50.024;8.172;2023-05-15T07:35:08;16.10;99.90
15815;DHT22;8008;50.024;8.172;2023-05-15T07:37:38;16.20;99.90
15815;DHT22;8008;50.024;8.172;2023-05-15T07:40:07;16.30;99.90
15815;DHT22;8008;50.024;8.172;2023-05-15T07:42:35;16.60;99.90
15815;DHT22;8008;50.024;8.172;2023-05-15T07:45:06;16.70;99.90
15815;DHT22;8008;50.024;8.172;2023-05-15T07:47:34;16.50;99.90
15815;DHT22;8008;50.024;8.172;2023-05-15T07:50:02;16.60;99.90
15815;DHT22;8008;50.024;8.172;2023-05-15T07:52:30;16.70;99.90
15815;DHT22;8008;50.024;8.172;2023-05-15T07:54:59;16.60;99.90
15815;DHT22;8008;50.024;8.172;2023-05-15T07:57:27;16.60;99.90
15815;DHT22;8008;50.024;8.172;2023-05-15T07:59:55;16.60;99.90
15815;DHT22;8008;50.024;8.172;2023-05-15T08:02:23;16.70;99.90
15815;DHT22;8008;50.024;8.172;2023-05-15T08:04:51;16.80;99.90
15815;DHT22;8008;50.024;8.172;2023-05-15T08:07:19;17.00;99.90
15815;DHT22;8008;50.024;8.172;2023-05-15T08:09:47;17.00;99.90
15815;DHT22;8008;50.024;8.172;2023-05-15T08:12:17;17.10;99.90
15815;DHT22;8008;50.024;8.172;2023-05-15T08:14:48;17.20;99.90
15815;DHT22;8008;50.024;8.172;2023-05-15T08:17:16;17.30;99.90
15815;DHT22;8008;50.024;8.172;2023-05-15T08:19:44;17.50;99.90
15815;DHT22;8008;50.024;8.172;2023-05-15T08:22:13;17.70;99.90
15815;DHT22;8008;50.024;8.172;2023-05-15T08:24:41;17.70;99.90
15815;DHT22;8008;50.024;8.172;2023-05-15T08:27:09;17.80;99.90
15815;DHT22;8008;50.024;8.172;2023-05-15T08:29:38;17.80;99.90
15815;DHT22;8008;50.024;8.172;2023-05-15T08:32:08;17.80;99.90
15815;DHT22;8008;50.024;8.172;2023-05-15T08:34:36;17.80;99.90
15815;DHT22;8008;50.024;8.172;2023-05-15T08:37:04;17.80;99.90
15815;DHT22;8008;50.024;8.172;2023-05-15T08:39:33;17.60;99.90
15815;DHT22;8008;50.024;8.172;2023-05-15T08:42:07;17.40;99.90
15815;DHT22;8008;50.024;8.172;2023-05-15T08:44:35;17.30;99.90
15815;DHT22;8008;50.024;8.172;2023-05-15T08:47:05;17.40;99.90
15815;DHT22;8008;50.024;8.172;2023-05-15T08:49:42;17.50;99.90
15815;DHT22;8008;50.024;8.172;2023-05-15T08:52:14;17.40;99.90
15815;DHT22;8008;50.024;8.172;2023-05-15T08:54:42;17.40;99.90
15815;DHT22;8008;50.024;8.172;2023-05-15T08:57:14;17.40;99.90
15815;DHT22;8008;50.024;8.172;2023-05-15T08:59:43;17.60;99.90
15815;DHT22;8008;50.024;8.172;2023-05-15T09:02:14;17.70;99.90
15815;DHT22;8008;50.024;8.172;2023-05-15T09:04:42;17.90;99.90
15815;DHT22;8008;50.024;8.172;2023-05-15T09:07:11;18.00;99.90
15815;DHT22;8008;50.024;8.172;2023-05-15T09:09:40;18.10;99.90
15815;DHT22;8008;50.024;8.172;2023-05-15T09:12:10;18.00;99.90
15815;DHT22;8008;50.024;8.172;2023-05-15T09:14:40;18.00;99.90
15815;DHT22;8008;50.024;8.172;2023-05-15T09:17:09;18.00;99.90
15815;DHT22;8008;50.024;8.172;2023-05-15T09:19:39;18.10;99.90
15815;DHT22;8008;50.024;8.172;2023-05-15T09:22:13;18.00;99.90
15815;DHT22;8008;50.024;8.172;2023-05-15T09:24:44;18.10;99.90
15815;DHT22;8008;50.024;8.172;2023-05-15T09:27:13;18.10;99.90
15815;DHT22;8008;50.024;8.172;2023-05-15T09:29:41;18.30;99.90
15815;DHT22;8008;50.024;8.172;2023-05-15T09:32:11;18.30;99.90
15815;DHT22;8008;50.024;8.172;2023-05-15T09:34:42;18.30;99.90
15815;DHT22;8008;50.024;8.172;2023-05-15T09:37:26;18.20;99.90
15815;DHT22;8008;50.024;8.172;2023-05-15T09:39:55;18.30;99.90
15815;DHT22;8008;50.024;8.172;2023-05-15T09:42:23;18.40;99.90
15815;DHT22;8008;50.024;8.172;2023-05-15T09:44:51;18.50;99.90
15815;DHT22;8008;50.024;8.172;2023-05-15T09:47:19;18.60;99.90
15815;DHT22;8008;50.024;8.172;2023-05-15T09:49:49;18.60;99.90
15815;DHT22;8008;50.024;8.172;2023-05-15T09:52:17;18.80;99.90
15815;DHT22;8008;50.024;8.172;2023-05-15T09:54:45;19.00;99.90
15815;DHT22;8008;50.024;8.172;2023-05-15T09:57:20;19.10;99.90
15815;DHT22;8008;50.024;8.172;2023-05-15T09:59:48;19.30;99.90
15815;DHT22;8008;50.024;8.172;2023-05-15T10:02:23;19.60;99.90
15815;DHT22;8008;50.024;8.172;2023-05-15T10:04:55;19.70;99.90
15815;DHT22;8008;50.024;8.172;2023-05-15T10:07:27;19.70;99.90
15815;DHT22;8008;50.024;8.172;2023-05-15T10:09:55;20.00;99.90
15815;DHT22;8008;50.024;8.172;2023-05-15T10:12:24;20.20;99.50
15815;DHT22;8008;50.024;8.172;2023-05-15T10:14:54;20.10;98.50
15815;DHT22;8008;50.024;8.172;2023-05-15T10:17:22;20.10;98.60
15815;DHT22;8008;50.024;8.172;2023-05-15T10:19:50;19.90;98.00
15815;DHT22;8008;50.024;8.172;2023-05-15T10:22:28;19.70;99.00
15815;DHT22;8008;50.024;8.172;2023-05-15T10:25:00;20.00;98.60
15815;DHT22;8008;50.024;8.172;2023-05-15T10:27:29;20.30;98.30
15815;DHT22;8008;50.024;8.172;2023-05-15T10:29:57;20.50;98.00
15815;DHT22;8008;50.024;8.172;2023-05-15T10:32:26;20.50;97.60
15815;DHT22;8008;50.024;8.172;2023-05-15T10:34:56;20.70;96.70
15815;DHT22;8008;50.024;8.172;2023-05-15T10:37:27;21.20;97.30
15815;DHT22;8008;50.024;8.172;2023-05-15T10:39:56;21.10;96.00
15815;DHT22;8008;50.024;8.172;2023-05-15T10:42:25;20.80;95.90
15815;DHT22;8008;50.024;8.172;2023-05-15T10:44:55;20.40;95.50
15815;DHT22;8008;50.024;8.172;2023-05-15T10:47:28;20.30;95.70
15815;DHT22;8008;50.024;8.172;2023-05-15T10:49:57;20.00;96.10
15815;DHT22;8008;50.024;8.172;2023-05-15T10:52:26;19.90;95.60
15815;DHT22;8008;50.024;8.172;2023-05-15T10:54:54;20.00;96.40
15815;DHT22;8008;50.024;8.172;2023-05-15T10:57:22;20.50;96.10
15815;DHT22;8008;50.024;8.172;2023-05-15T10:59:50;21.00;95.60
15815;DHT22;8008;50.024;8.172;2023-05-15T11:02:19;21.50;94.30
15815;DHT22;8008;50.024;8.172;2023-05-15T11:04:53;21.90;92.90
15815;DHT22;8008;50.024;8.172;2023-05-15T11:07:22;22.20;91.50
15815;DHT22;8008;50.024;8.172;2023-05-15T11:09:53;22.60;90.50
15815;DHT22;8008;50.024;8.172;2023-05-15T11:12:21;22.80;91.00
15815;DHT22;8008;50.024;8.172;2023-05-15T11:15:18;22.80;89.80
15815;DHT22;8008;50.024;8.172;2023-05-15T11:18:03;22.80;87.50
15815;DHT22;8008;50.024;8.172;2023-05-15T11:20:32;23.00;85.10
15815;DHT22;8008;50.024;8.172;2023-05-15T11:23:02;23.10;83.20
15815;DHT22;8008;50.024;8.172;2023-05-15T11:25:33;22.90;82.40
15815;DHT22;8008;50.024;8.172;2023-05-15T11:28:02;22.90;83.80
15815;DHT22;8008;50.024;8.172;2023-05-15T11:30:35;23.30;84.60
15815;DHT22;8008;50.024;8.172;2023-05-15T11:33:04;23.80;86.80
15815;DHT22;8008;50.024;8.172;2023-05-15T11:35:37;24.30;84.50
15815;DHT22;8008;50.024;8.172;2023-05-15T11:38:14;24.70;82.20
15815;DHT22;8008;50.024;8.172;2023-05-15T11:40:45;24.50;80.90
15815;DHT22;8008;50.024;8.172;2023-05-15T11:43:18;23.90;77.10
15815;DHT22;8008;50.024;8.172;2023-05-15T11:45:49;24.10;77.90
15815;DHT22;8008;50.024;8.172;2023-05-15T11:48:18;24.10;76.10
15815;DHT22;8008;50.024;8.172;2023-05-15T11:50:47;24.30;70.70
15815;DHT22;8008;50.024;8.172;2023-05-15T11:53:15;24.50;72.30
15815;DHT22;8008;50.024;8.172;2023-05-15T11:55:45;24.30;72.00
15815;DHT22;8008;50.024;8.172;2023-05-15T11:58:14;23.90;72.60
15815;DHT22;8008;50.024;8.172;2023-05-15T12:00:44;23.60;73.50
15815;DHT22;8008;50.024;8.172;2023-05-15T12:03:16;24.10;72.80
15815;DHT22;8008;50.024;8.172;2023-05-15T12:05:46;24.60;70.50
15815;DHT22;8008;50.024;8.172;2023-05-15T12:08:24;25.20;69.50
15815;DHT22;8008;50.024;8.172;2023-05-15T12:10:57;24.80;68.40
15815;DHT22;8008;50.024;8.172;2023-05-15T12:13:26;24.20;68.60
15815;DHT22;8008;50.024;8.172;2023-05-15T12:15:54;23.60;67.00
15815;DHT22;8008;50.024;8.172;2023-05-15T12:18:23;23.20;68.60
15815;DHT22;8008;50.024;8.172;2023-05-15T12:20:52;22.90;69.80
15815;DHT22;8008;50.024;8.172;2023-05-15T12:23:21;22.80;69.60
15815;DHT22;8008;50.024;8.172;2023-05-15T12:25:52;22.50;70.50
15815;DHT22;8008;50.024;8.172;2023-05-15T12:28:25;22.60;71.70
15815;DHT22;8008;50.024;8.172;2023-05-15T12:30:53;23.70;71.70
15815;DHT22;8008;50.024;8.172;2023-05-15T12:33:22;24.70;68.30
15815;DHT22;8008;50.024;8.172;2023-05-15T12:35:54;25.90;66.90
15815;DHT22;8008;50.024;8.172;2023-05-15T12:38:27;26.50;63.40
15815;DHT22;8008;50.024;8.172;2023-05-15T12:40:55;27.50;64.60
15815;DHT22;8008;50.024;8.172;2023-05-15T12:43:25;28.20;61.90
15815;DHT22;8008;50.024;8.172;2023-05-15T12:45:53;28.10;59.50
15815;DHT22;8008;50.024;8.172;2023-05-15T12:48:22;28.30;59.50
15815;DHT22;8008;50.024;8.172;2023-05-15T12:50:50;29.10;58.80
15815;DHT22;8008;50.024;8.172;2023-05-15T12:53:20;29.00;57.40
15815;DHT22;8008;50.024;8.172;2023-05-15T12:55:49;29.80;56.50
15815;DHT22;8008;50.024;8.172;2023-05-15T12:58:18;30.70;55.40
15815;DHT22;8008;50.024;8.172;2023-05-15T13:00:47;31.10;52.90
15815;DHT22;8008;50.024;8.172;2023-05-15T13:03:19;31.20;52.40
15815;DHT22;8008;50.024;8.172;2023-05-15T13:05:47;30.80;52.10
15815;DHT22;8008;50.024;8.172;2023-05-15T13:08:16;30.70;52.00
15815;DHT22;8008;50.024;8.172;2023-05-15T13:10:46;30.80;51.20
15815;DHT22;8008;50.024;8.172;2023-05-15T13:13:15;31.30;52.80
15815;DHT22;8008;50.024;8.172;2023-05-15T13:15:44;31.80;53.30
15815;DHT22;8008;50.024;8.172;2023-05-15T13:18:15;31.60;52.30
15815;DHT22;8008;50.024;8.172;2023-05-15T13:20:45;31.70;51.00
15815;DHT22;8008;50.024;8.172;2023-05-15T13:23:16;31.60;49.10
15815;DHT22;8008;50.024;8.172;2023-05-15T13:25:44;31.90;48.30
15815;DHT22;8008;50.024;8.172;2023-05-15T13:28:12;32.00;47.80
15815;DHT22;8008;50.024;8.172;2023-05-15T13:30:41;31.70;45.90
15815;DHT22;8008;50.024;8.172;2023-05-15T13:33:10;30.90;46.60
15815;DHT22;8008;50.024;8.172;2023-05-15T13:35:40;30.90;46.20
15815;DHT22;8008;50.024;8.172;2023-05-15T13:38:09;30.70;47.40
15815;DHT22;8008;50.024;8.172;2023-05-15T13:40:38;30.10;48.70
15815;DHT22;8008;50.024;8.172;2023-05-15T13:43:06;29.70;47.30
15815;DHT22;8008;50.024;8.172;2023-05-15T13:45:34;29.80;48.00
15815;DHT22;8008;50.024;8.172;2023-05-15T13:48:02;29.50;47.90
15815;DHT22;8008;50.024;8.172;2023-05-15T13:50:30;29.10;47.30
15815;DHT22;8008;50.024;8.172;2023-05-15T13:52:59;29.60;48.10
15815;DHT22;8008;50.024;8.172;2023-05-15T13:55:27;29.70;49.50
15815;DHT22;8008;50.024;8.172;2023-05-15T13:57:55;29.10;50.20
15815;DHT22;8008;50.024;8.172;2023-05-15T14:00:23;28.40;51.30
15815;DHT22;8008;50.024;8.172;2023-05-15T14:02:52;27.80;52.10
15815;DHT22;8008;50.024;8.172;2023-05-15T14:05:20;27.20;53.20
15815;DHT22;8008;50.024;8.172;2023-05-15T14:07:47;26.80;53.50
15815;DHT22;8008;50.024;8.172;2023-05-15T14:10:17;26.50;53.70
15815;DHT22;8008;50.024;8.172;2023-05-15T14:12:44;27.30;53.30
15815;DHT22;8008;50.024;8.172;2023-05-15T14:15:12;27.40;52.30
15815;DHT22;8008;50.024;8.172;2023-05-15T14:17:40;27.30;52.30
15815;DHT22;8008;50.024;8.172;2023-05-15T14:20:09;26.90;52.20
15815;DHT22;8008;50.024;8.172;2023-05-15T14:22:38;26.40;52.60
15815;DHT22;8008;50.024;8.172;2023-05-15T14:25:07;26.10;52.90
15815;DHT22;8008;50.024;8.172;2023-05-15T14:27:37;26.10;52.90
15815;DHT22;8008;50.024;8.172;2023-05-15T14:30:06;26.20;53.30
15815;DHT22;8008;50.024;8.172;2023-05-15T14:32:34;26.40;53.30
15815;DHT22;8008;50.024;8.172;2023-05-15T14:35:02;26.90;53.90
15815;DHT22;8008;50.024;8.172;2023-05-15T14:37:30;28.10;54.30
15815;DHT22;8008;50.024;8.172;2023-05-15T14:39:58;28.30;53.30
15815;DHT22;8008;50.024;8.172;2023-05-15T14:42:26;28.90;52.90
15815;DHT22;8008;50.024;8.172;2023-05-15T14:44:55;29.00;51.00
15815;DHT22;8008;50.024;8.172;2023-05-15T14:47:23;29.20;50.90
15815;DHT22;8008;50.024;8.172;2023-05-15T14:49:53;28.60;51.20
15815;DHT22;8008;50.024;8.172;2023-05-15T14:52:21;28.90;50.50
15815;DHT22;8008;50.024;8.172;2023-05-15T14:54:49;29.70;50.80
15815;DHT22;8008;50.024;8.172;2023-05-15T14:57:33;30.20;50.00
15815;DHT22;8008;50.024;8.172;2023-05-15T15:00:04;31.00;49.10
15815;DHT22;8008;50.024;8.172;2023-05-15T15:02:32;31.70;48.30
15815;DHT22;8008;50.024;8.172;2023-05-15T15:05:00;32.00;48.00
15815;DHT22;8008;50.024;8.172;2023-05-15T15:07:30;32.00;47.30
15815;DHT22;8008;50.024;8.172;2023-05-15T15:09:57;31.90;48.60
15815;DHT22;8008;50.024;8.172;2023-05-15T15:12:25;33.20;47.40
15815;DHT22;8008;50.024;8.172;2023-05-15T15:14:53;33.70;46.00
15815;DHT22;8008;50.024;8.172;2023-05-15T15:17:22;33.50;45.20
15815;DHT22;8008;50.024;8.172;2023-05-15T15:19:50;34.00;45.20
15815;DHT22;8008;50.024;8.172;2023-05-15T15:22:18;33.30;45.60
15815;DHT22;8008;50.024;8.172;2023-05-15T15:24:46;31.30;45.50
15815;DHT22;8008;50.024;8.172;2023-05-15T15:27:14;30.30;47.90
15815;DHT22;8008;50.024;8.172;2023-05-15T15:29:42;29.50;48.90
15815;DHT22;8008;50.024;8.172;2023-05-15T15:32:10;30.30;49.60
15815;DHT22;8008;50.024;8.172;2023-05-15T15:34:39;31.20;48.30
15815;DHT22;8008;50.024;8.172;2023-05-15T15:37:07;31.50;49.50
15815;DHT22;8008;50.024;8.172;2023-05-15T15:39:35;31.70;50.20
15815;DHT22;8008;50.024;8.172;2023-05-15T15:42:03;30.50;50.60
15815;DHT22;8008;50.024;8.172;2023-05-15T15:44:32;29.60;52.10
15815;DHT22;8008;50.024;8.172;2023-05-15T15:47:00;28.90;52.90
15815;DHT22;8008;50.024;8.172;2023-05-15T15:49:30;28.50;53.60
15815;DHT22;8008;50.024;8.172;2023-05-15T15:51:59;27.90;54.20
15815;DHT22;8008;50.024;8.172;2023-05-15T15:54:28;27.10;54.40
15815;DHT22;8008;50.024;8.172;2023-05-15T15:56:58;26.40;55.10
15815;DHT22;8008;50.024;8.172;2023-05-15T15:59:26;25.90;56.20
15815;DHT22;8008;50.024;8.172;2023-05-15T16:01:54;25.70;56.40
15815;DHT22;8008;50.024;8.172;2023-05-15T16:04:22;25.40;56.90
15815;DHT22;8008;50.024;8.172;2023-05-15T16:06:50;25.10;57.10
15815;DHT22;8008;50.024;8.172;2023-05-15T16:09:19;24.90;58.00
15815;DHT22;8008;50.024;8.172;2023-05-15T16:11:47;24.90;58.20
15815;DHT22;8008;50.024;8.172;2023-05-15T16:14:15;24.70;58.00
15815;DHT22;8008;50.024;8.172;2023-05-15T16:16:43;24.40;58.00
15815;DHT22;8008;50.024;8.172;2023-05-15T16:19:11;24.20;58.20
15815;DHT22;8008;50.024;8.172;2023-05-15T16:21:40;24.10;58.90
15815;DHT22;8008;50.024;8.172;2023-05-15T16:24:08;23.80;59.00
15815;DHT22;8008;50.024;8.172;2023-05-15T16:26:37;23.80;59.70
15815;DHT22;8008;50.024;8.172;2023-05-15T16:29:05;23.50;59.60
15815;DHT22;8008;50.024;8.172;2023-05-15T16:31:34;23.40;60.20
15815;DHT22;8008;50.024;8.172;2023-05-15T16:34:03;23.10;60.40
15815;DHT22;8008;50.024;8.172;2023-05-15T16:36:31;23.00;59.90
15815;DHT22;8008;50.024;8.172;2023-05-15T16:38:59;23.00;60.90
15815;DHT22;8008;50.024;8.172;2023-05-15T16:41:28;22.70;60.30
15815;DHT22;8008;50.024;8.172;2023-05-15T16:43:57;22.60;61.20
15815;DHT22;8008;50.024;8.172;2023-05-15T16:46:25;22.50;61.40
15815;DHT22;8008;50.024;8.172;2023-05-15T16:48:53;22.30;62.00
15815;DHT22;8008;50.024;8.172;2023-05-15T16:51:21;22.20;62.90
15815;DHT22;8008;50.024;8.172;2023-05-15T16:53:49;22.30;63.40
15815;DHT22;8008;50.024;8.172;2023-05-15T16:56:18;22.30;63.30
15815;DHT22;8008;50.024;8.172;2023-05-15T16:58:46;22.20;63.40
15815;DHT22;8008;50.024;8.172;2023-05-15T17:01:17;22.20;62.30
15815;DHT22;8008;50.024;8.172;2023-05-15T17:03:45;22.20;62.00
15815;DHT22;8008;50.024;8.172;2023-05-15T17:06:13;22.10;61.90
15815;DHT22;8008;50.024;8.172;2023-05-15T17:08:42;22.00;61.90
15815;DHT22;8008;50.024;8.172;2023-05-15T17:11:11;21.90;61.70
15815;DHT22;8008;50.024;8.172;2023-05-15T17:13:39;21.90;61.20
15815;DHT22;8008;50.024;8.172;2023-05-15T17:16:07;21.90;61.00
15815;DHT22;8008;50.024;8.172;2023-05-15T17:18:37;21.90;61.40
15815;DHT22;8008;50.024;8.172;2023-05-15T17:21:05;21.80;61.30
15815;DHT22;8008;50.024;8.172;2023-05-15T17:23:33;21.80;61.00
15815;DHT22;8008;50.024;8.172;2023-05-15T17:26:01;21.70;60.70
15815;DHT22;8008;50.024;8.172;2023-05-15T17:28:29;21.80;61.10
15815;DHT22;8008;50.024;8.172;2023-05-15T17:30:57;21.80;61.70
15815;DHT22;8008;50.024;8.172;2023-05-15T17:33:25;21.80;62.00
15815;DHT22;8008;50.024;8.172;2023-05-15T17:35:54;21.80;61.60
15815;DHT22;8008;50.024;8.172;2023-05-15T17:38:25;21.70;61.10
15815;DHT22;8008;50.024;8.172;2023-05-15T17:40:53;21.60;61.30
15815;DHT22;8008;50.024;8.172;2023-05-15T17:43:21;21.50;61.60
15815;DHT22;8008;50.024;8.172;2023-05-15T17:45:49;21.40;61.10
15815;DHT22;8008;50.024;8.172;2023-05-15T17:48:17;21.30;61.60
15815;DHT22;8008;50.024;8.172;2023-05-15T17:50:45;21.20;61.10
15815;DHT22;8008;50.024;8.172;2023-05-15T17:53:14;21.10;61.60
15815;DHT22;8008;50.024;8.172;2023-05-15T17:55:42;21.00;61.70
15815;DHT22;8008;50.024;8.172;2023-05-15T17:58:10;20.90;62.00
15815;DHT22;8008;50.024;8.172;2023-05-15T18:00:38;20.80;61.90
15815;DHT22;8008;50.024;8.172;2023-05-15T18:03:06;20.80;62.00
15815;DHT22;8008;50.024;8.172;2023-05-15T18:05:35;20.80;62.50
15815;DHT22;8008;50.024;8.172;2023-05-15T18:08:03;20.70;62.90
15815;DHT22;8008;50.024;8.172;2023-05-15T18:10:33;20.60;62.70
15815;DHT22;8008;50.024;8.172;2023-05-15T18:13:01;20.60;62.30
15815;DHT22;8008;50.024;8.172;2023-05-15T18:15:29;20.50;63.20
15815;DHT22;8008;50.024;8.172;2023-05-15T18:17:57;20.30;62.80
15815;DHT22;8008;50.024;8.172;2023-05-15T18:20:26;20.20;63.40
15815;DHT22;8008;50.024;8.172;2023-05-15T18:22:56;20.20;63.40
15815;DHT22;8008;50.024;8.172;2023-05-15T18:25:43;20.20;64.10
15815;DHT22;8008;50.024;8.172;2023-05-15T18:28:14;20.20;64.40
15815;DHT22;8008;50.024;8.172;2023-05-15T18:30:44;20.20;64.60
15815;DHT22;8008;50.024;8.172;2023-05-15T18:33:12;20.10;64.70
15815;DHT22;8008;50.024;8.172;2023-05-15T18:35:43;20.10;64.90
15815;DHT22;8008;50.024;8.172;2023-05-15T18:38:11;20.10;65.30
15815;DHT22;8008;50.024;8.172;2023-05-15T18:40:40;20.00;65.70
15815;DHT22;8008;50.024;8.172;2023-05-15T18:43:08;19.90;65.60
15815;DHT22;8008;50.024;8.172;2023-05-15T18:45:36;19.80;66.00
15815;DHT22;8008;50.024;8.172;2023-05-15T18:48:05;19.80;66.90
15815;DHT22;8008;50.024;8.172;2023-05-15T18:50:33;19.60;68.10
15815;DHT22;8008;50.024;8.172;2023-05-15T18:53:02;19.50;69.10
15815;DHT22;8008;50.024;8.172;2023-05-15T18:55:30;19.40;69.30
15815;DHT22;8008;50.024;8.172;2023-05-15T18:57:59;19.30;69.30